createdAt,value
2018-09-14T00:01:07.386Z,68.28
2018-09-14T00:03:35.093Z,68.24
2018-09-14T00:06:02.774Z,68.36
2018-09-14T00:08:30.495Z,67.93
2018-09-14T00:10:58.201Z,67.99
2018-09-14T00:13:25.916Z,67.77
2018-09-14T00:15:53.625Z,67.71
2018-09-14T00:18:21.329Z,67.95
2018-09-14T00:20:49.020Z,67.85
2018-09-14T00:23:16.665Z,68.06
2018-09-14T00:25:44.453Z,67.79
2018-09-14T00:28:12.212Z,68.17
2018-09-14T00:30:40.822Z,67.92
2018-09-14T00:33:08.744Z,67.82
2018-09-14T00:35:36.479Z,68.08
2018-09-14T00:38:04.217Z,67.74
2018-09-14T00:40:31.881Z,67.84
2018-09-14T00:42:59.586Z,68.19
2018-09-14T00:45:27.303Z,68.52
2018-09-14T00:47:54.984Z,68.47
2018-09-14T00:50:22.623Z,68.52
2018-09-14T00:52:50.290Z,68.53
2018-09-14T00:55:18.018Z,69.23
2018-09-14T00:57:45.724Z,68.66
2018-09-14T01:00:13.418Z,68.79
2018-09-14T01:02:41.087Z,69.04
2018-09-14T01:05:08.819Z,68.70
2018-09-14T01:07:36.537Z,68.72
2018-09-14T01:10:05.486Z,68.82
2018-09-14T01:12:33.637Z,69.28
2018-09-14T01:15:01.343Z,69.18
2018-09-14T01:17:29.014Z,69.53
2018-09-14T01:19:56.738Z,69.20
2018-09-14T01:22:24.466Z,69.63
2018-09-14T01:24:52.201Z,69.40
2018-09-14T01:27:19.883Z,69.50
2018-09-14T01:29:47.547Z,69.45
2018-09-14T01:32:15.242Z,69.24
2018-09-14T01:34:43.093Z,69.37
2018-09-14T01:37:10.746Z,69.41
2018-09-14T01:39:38.416Z,69.94
2018-09-14T01:42:06.481Z,69.46
2018-09-14T01:44:34.166Z,69.17
2018-09-14T01:47:01.909Z,69.22
2018-09-14T01:49:29.619Z,68.84
2018-09-14T01:51:57.293Z,68.92
2018-09-14T01:54:25.003Z,68.90
2018-09-14T01:56:52.749Z,69.06
2018-09-14T01:59:20.433Z,69.30
2018-09-14T02:01:48.082Z,69.17
2018-09-14T02:04:15.861Z,69.14
2018-09-14T02:06:43.557Z,69.18
2018-09-14T02:09:11.629Z,69.24
2018-09-14T02:11:39.437Z,68.98
2018-09-14T02:14:07.412Z,68.90
2018-09-14T02:16:35.141Z,68.67
2018-09-14T02:19:03.010Z,68.74
2018-09-14T02:21:30.952Z,69.07
2018-09-14T02:23:58.614Z,69.44
2018-09-14T02:26:26.354Z,68.88
2018-09-14T02:28:54.061Z,69.31
2018-09-14T02:31:21.846Z,69.22
2018-09-14T02:33:49.568Z,68.49
2018-09-14T02:36:17.253Z,69.06
2018-09-14T02:38:45.003Z,69.35
2018-09-14T02:41:12.733Z,69.09
2018-09-14T02:43:40.418Z,68.69
2018-09-14T02:46:08.094Z,68.34
2018-09-14T02:48:35.812Z,68.67
2018-09-14T02:51:03.578Z,68.63
2018-09-14T02:53:31.444Z,68.20
2018-09-14T02:55:59.372Z,68.22
2018-09-14T02:58:27.079Z,68.71
2018-09-14T03:00:54.746Z,68.57
2018-09-14T03:03:22.475Z,69.31
2018-09-14T03:05:50.139Z,68.92
2018-09-14T03:08:17.773Z,69.25
2018-09-14T03:10:45.438Z,69.26
2018-09-14T03:13:13.129Z,69.24
2018-09-14T03:15:40.793Z,69.79
2018-09-14T03:18:08.527Z,69.41
2018-09-14T03:20:36.196Z,69.16
2018-09-14T03:23:03.840Z,69.07
2018-09-14T03:25:31.564Z,68.87
2018-09-14T03:27:59.252Z,68.70
2018-09-14T03:30:26.984Z,68.84
2018-09-14T03:32:54.705Z,68.61
2018-09-14T03:35:22.371Z,68.46
2018-09-14T03:37:50.108Z,68.74
2018-09-14T03:40:17.782Z,68.83
2018-09-14T03:42:45.470Z,69.56
2018-09-14T03:45:13.196Z,69.50
2018-09-14T03:47:40.887Z,68.87
2018-09-14T03:50:08.571Z,69.42
2018-09-14T03:52:36.286Z,69.29
2018-09-14T03:55:04.090Z,69.42
2018-09-14T03:57:31.772Z,69.41
2018-09-14T03:59:59.456Z,69.88
2018-09-14T04:02:27.124Z,70.05
2018-09-14T04:04:54.799Z,70.02
2018-09-14T04:07:22.501Z,70.21
2018-09-14T04:09:50.143Z,70.25
2018-09-14T04:12:17.822Z,70.62
2018-09-14T04:14:45.498Z,70.71
2018-09-14T04:17:13.150Z,70.35
2018-09-14T04:19:40.810Z,70.31
2018-09-14T04:22:08.585Z,70.54
2018-09-14T04:24:36.281Z,70.61
2018-09-14T04:27:03.990Z,70.73
2018-09-14T04:29:31.711Z,70.69
2018-09-14T04:31:59.351Z,70.50
2018-09-14T04:34:27.045Z,70.73
2018-09-14T04:36:54.846Z,70.71
2018-09-14T04:39:22.514Z,70.49
2018-09-14T04:41:50.161Z,70.01
2018-09-14T04:44:17.846Z,70.39
2018-09-14T04:46:45.614Z,71.04
2018-09-14T04:49:13.334Z,71.26
2018-09-14T04:51:41.254Z,71.15
2018-09-14T04:54:08.945Z,71.20
2018-09-14T04:56:36.600Z,71.35
2018-09-14T04:59:04.305Z,71.17
2018-09-14T05:01:32.034Z,71.26
2018-09-14T05:03:59.819Z,71.22
2018-09-14T05:06:27.480Z,71.21
2018-09-14T05:08:55.216Z,71.12
2018-09-14T05:11:22.898Z,71.47
2018-09-14T05:13:50.561Z,71.49
2018-09-14T05:16:18.245Z,71.70
2018-09-14T05:18:46.404Z,71.30
2018-09-14T05:21:14.205Z,71.63
2018-09-14T05:23:41.873Z,71.70
2018-09-14T05:26:09.543Z,71.88
2018-09-14T05:28:37.285Z,71.82
2018-09-14T05:31:05.019Z,71.80
2018-09-14T05:33:32.803Z,71.66
2018-09-14T05:36:00.500Z,71.54
2018-09-14T05:38:28.368Z,71.72
2018-09-14T05:40:56.013Z,71.66
2018-09-14T05:43:23.713Z,71.86
2018-09-14T05:45:51.459Z,71.91
2018-09-14T05:48:19.201Z,72.49
2018-09-14T05:50:47.074Z,71.88
2018-09-14T05:53:14.781Z,71.63
2018-09-14T05:55:42.488Z,71.49
2018-09-14T05:58:10.180Z,71.52
2018-09-14T06:00:37.934Z,71.51
2018-09-14T06:03:05.681Z,71.47
2018-09-14T06:05:33.387Z,71.11
2018-09-14T06:08:01.114Z,71.25
2018-09-14T06:10:28.789Z,71.23
2018-09-14T06:12:56.454Z,71.78
2018-09-14T06:15:24.166Z,71.64
2018-09-14T06:17:51.875Z,71.37
2018-09-14T06:20:19.550Z,71.67
2018-09-14T06:22:47.286Z,71.31
2018-09-14T06:25:14.956Z,71.34
2018-09-14T06:27:42.638Z,71.36
2018-09-14T06:30:10.310Z,71.37
2018-09-14T06:32:37.969Z,71.12
2018-09-14T06:35:05.710Z,71.32
2018-09-14T06:37:33.411Z,70.96
2018-09-14T06:40:01.160Z,71.35
2018-09-14T06:42:28.852Z,71.06
2018-09-14T06:44:56.621Z,71.41
2018-09-14T06:47:24.274Z,71.45
2018-09-14T06:49:51.992Z,70.79
2018-09-14T06:52:19.681Z,71.45
2018-09-14T06:54:47.340Z,70.73
2018-09-14T06:57:15.041Z,70.56
2018-09-14T06:59:42.742Z,70.59
2018-09-14T07:02:10.522Z,70.92
2018-09-14T07:04:38.248Z,70.26
2018-09-14T07:07:05.922Z,69.76
2018-09-14T07:09:33.621Z,69.45
2018-09-14T07:12:01.367Z,68.90
2018-09-14T07:14:29.030Z,68.88
2018-09-14T07:16:56.702Z,69.06
2018-09-14T07:19:24.433Z,68.88
2018-09-14T07:21:52.244Z,68.29
2018-09-14T07:24:19.969Z,68.33
2018-09-14T07:26:47.896Z,68.51
2018-09-14T07:29:15.663Z,68.21
2018-09-14T07:31:43.429Z,68.15
2018-09-14T07:34:11.044Z,67.92
2018-09-14T07:36:39.562Z,67.85
2018-09-14T07:39:08.518Z,67.39
2018-09-14T07:41:36.247Z,67.72
2018-09-14T07:44:04.067Z,68.36
2018-09-14T07:46:31.784Z,68.08
2018-09-14T07:48:59.496Z,68.05
2018-09-14T07:51:27.193Z,67.43
2018-09-14T07:53:54.939Z,67.89
2018-09-14T07:56:22.682Z,68.00
2018-09-14T07:58:50.386Z,67.50
2018-09-14T08:01:18.202Z,67.03
2018-09-14T08:03:45.854Z,66.94
2018-09-14T08:06:13.541Z,67.57
2018-09-14T08:08:41.261Z,67.06
2018-09-14T08:11:09.015Z,66.96
2018-09-14T08:13:36.656Z,66.92
2018-09-14T08:16:04.403Z,66.26
2018-09-14T08:18:32.105Z,66.63
2018-09-14T08:20:59.753Z,66.26
2018-09-14T08:23:27.427Z,66.30
2018-09-14T08:25:55.120Z,66.92
2018-09-14T08:28:22.799Z,66.30
2018-09-14T08:30:50.517Z,66.59
2018-09-14T08:33:18.417Z,66.39
2018-09-14T08:35:46.164Z,65.89
2018-09-14T08:38:13.818Z,65.22
2018-09-14T08:40:41.504Z,64.34
2018-09-14T08:43:09.238Z,64.38
2018-09-14T08:45:36.948Z,64.92
2018-09-14T08:48:04.947Z,65.17
2018-09-14T08:50:32.696Z,65.33
2018-09-14T08:53:00.426Z,65.42
2018-09-14T08:55:28.091Z,65.60
2018-09-14T08:57:55.913Z,65.58
2018-09-14T09:00:24.100Z,65.31
2018-09-14T09:02:52.619Z,65.43
2018-09-14T09:05:20.460Z,66.05
2018-09-14T09:07:48.576Z,66.00
2018-09-14T09:10:16.320Z,66.20
2018-09-14T09:12:43.989Z,64.71
2018-09-14T09:15:11.732Z,64.25
2018-09-14T09:17:39.503Z,65.27
2018-09-14T09:20:07.297Z,65.07
2018-09-14T09:22:35.024Z,65.46
2018-09-14T09:25:02.739Z,64.73
2018-09-14T09:27:30.459Z,64.83
2018-09-14T09:29:58.185Z,65.54
2018-09-14T09:32:25.884Z,64.67
2018-09-14T09:34:53.764Z,64.79
2018-09-14T09:37:21.498Z,65.21
2018-09-14T09:39:49.205Z,64.87
2018-09-14T09:42:16.914Z,64.84
2018-09-14T09:44:44.642Z,65.48
2018-09-14T09:47:12.389Z,65.49
2018-09-14T09:49:40.039Z,64.54
2018-09-14T09:52:07.831Z,64.51
2018-09-14T09:54:35.522Z,64.76
2018-09-14T09:57:03.178Z,63.93
2018-09-14T09:59:30.861Z,63.61
2018-09-14T10:02:04.056Z,63.63
2018-09-14T10:04:38.139Z,63.58
2018-09-14T10:07:05.846Z,63.17
2018-09-14T10:09:33.584Z,62.17
2018-09-14T10:12:01.500Z,61.77
2018-09-14T10:14:29.208Z,61.40
2018-09-14T10:16:56.855Z,60.89
2018-09-14T10:19:24.582Z,61.39
2018-09-14T10:21:52.344Z,61.67
2018-09-14T10:24:20.051Z,62.08
2018-09-14T10:26:47.816Z,61.56
2018-09-14T10:29:15.459Z,61.49
2018-09-14T10:31:43.102Z,61.35
2018-09-14T10:34:10.805Z,61.41
2018-09-14T10:36:38.526Z,60.49
2018-09-14T10:39:07.888Z,59.54
2018-09-14T10:41:35.609Z,59.95
2018-09-14T10:44:03.325Z,59.97
2018-09-14T10:46:31.017Z,60.57
2018-09-14T10:48:58.963Z,60.04
2018-09-14T10:51:26.978Z,60.00
2018-09-14T10:53:54.918Z,59.65
2018-09-14T10:56:22.614Z,58.79
2018-09-14T10:58:50.310Z,57.91
2018-09-14T11:01:17.995Z,58.85
2018-09-14T11:03:45.832Z,58.01
2018-09-14T11:06:14.233Z,56.87
2018-09-14T11:08:41.890Z,57.53
2018-09-14T11:11:09.583Z,57.77
2018-09-14T11:13:37.298Z,58.24
2018-09-14T11:16:05.053Z,57.87
2018-09-14T11:18:32.735Z,57.93
2018-09-14T11:21:00.498Z,57.66
2018-09-14T11:23:28.221Z,57.85
2018-09-14T11:25:55.881Z,58.84
2018-09-14T11:28:23.543Z,57.82
2018-09-14T11:30:51.238Z,58.41
2018-09-14T11:33:18.947Z,58.34
2018-09-14T11:35:46.636Z,57.83
2018-09-14T11:38:14.327Z,57.78
2018-09-14T11:40:42.070Z,57.49
2018-09-14T11:43:09.733Z,57.28
2018-09-14T11:45:37.512Z,57.06
2018-09-14T11:48:05.556Z,55.75
2018-09-14T11:50:33.275Z,55.45
2018-09-14T11:53:01.018Z,55.00
2018-09-14T11:55:28.710Z,55.19
2018-09-14T11:57:56.393Z,54.83
2018-09-14T12:00:24.116Z,54.19
2018-09-14T12:02:51.818Z,53.22
2018-09-14T12:05:19.539Z,53.35
2018-09-14T12:07:47.202Z,54.67
2018-09-14T12:10:14.888Z,54.05
2018-09-14T12:12:42.620Z,54.79
2018-09-14T12:15:10.309Z,55.09
2018-09-14T12:17:38.057Z,56.36
2018-09-14T12:20:05.794Z,55.29
2018-09-14T12:22:33.494Z,55.83
2018-09-14T12:25:01.231Z,56.28
2018-09-14T12:27:28.939Z,56.62
2018-09-14T12:29:56.637Z,55.70
2018-09-14T12:32:24.285Z,55.03
2018-09-14T12:34:52.017Z,55.04
2018-09-14T12:37:19.718Z,55.27
2018-09-14T12:39:47.401Z,54.34
2018-09-14T12:42:15.113Z,54.26
2018-09-14T12:44:42.778Z,55.38
2018-09-14T12:47:10.493Z,55.55
2018-09-14T12:49:38.205Z,54.87
2018-09-14T12:52:05.980Z,55.08
2018-09-14T12:54:33.805Z,55.81
2018-09-14T12:57:01.491Z,55.62
2018-09-14T12:59:29.264Z,56.04
2018-09-14T13:01:56.974Z,55.72
2018-09-14T13:04:24.715Z,55.25
2018-09-14T13:06:52.901Z,53.98
2018-09-14T13:09:20.605Z,53.33
2018-09-14T13:11:48.229Z,53.61
2018-09-14T13:14:19.098Z,53.33
2018-09-14T13:16:47.229Z,53.57
2018-09-14T13:19:15.006Z,54.06
2018-09-14T13:21:42.690Z,53.78
2018-09-14T13:24:10.398Z,54.03
2018-09-14T13:26:38.089Z,53.96
2018-09-14T13:29:05.913Z,54.34
2018-09-14T13:31:33.702Z,54.89
2018-09-14T13:34:01.369Z,55.48
2018-09-14T13:36:29.042Z,55.66
2018-09-14T13:38:56.834Z,55.93
2018-09-14T13:41:24.520Z,55.95
2018-09-14T13:43:52.346Z,56.81
2018-09-14T13:46:20.078Z,55.00
2018-09-14T13:48:49.064Z,54.69
2018-09-14T13:51:16.893Z,55.13
2018-09-14T13:53:44.722Z,54.83
2018-09-14T13:56:12.586Z,55.63
2018-09-14T13:58:40.450Z,55.95
2018-09-14T14:01:08.280Z,55.58
2018-09-14T14:03:36.093Z,56.26
2018-09-14T14:06:03.838Z,55.82
2018-09-14T14:08:31.856Z,55.42
2018-09-14T14:10:59.988Z,55.51
2018-09-14T14:13:27.885Z,55.65
2018-09-14T14:15:55.834Z,56.60
2018-09-14T14:18:23.935Z,56.67
2018-09-14T14:20:51.646Z,55.03
2018-09-14T14:23:19.326Z,54.93
2018-09-14T14:25:47.021Z,55.63
2018-09-14T14:28:14.729Z,55.27
2018-09-14T14:30:42.504Z,55.51
2018-09-14T14:33:10.247Z,55.61
2018-09-14T14:35:38.293Z,55.47
2018-09-14T14:38:05.981Z,55.47
2018-09-14T14:40:33.667Z,55.77
2018-09-14T14:43:01.364Z,56.17
2018-09-14T14:45:29.045Z,56.38
2018-09-14T14:47:56.713Z,56.55
2018-09-14T14:50:24.453Z,56.57
2018-09-14T14:52:52.169Z,56.52
2018-09-14T14:55:19.887Z,56.46
2018-09-14T14:57:47.635Z,56.60
2018-09-14T15:00:15.288Z,56.23
2018-09-14T15:02:43.040Z,55.17
2018-09-14T15:05:10.814Z,54.65
2018-09-14T15:07:38.857Z,53.32
2018-09-14T15:10:06.564Z,53.60
2018-09-14T15:12:34.433Z,53.03
2018-09-14T15:15:02.137Z,52.91
2018-09-14T15:17:29.845Z,53.02
2018-09-14T15:19:57.584Z,51.71
2018-09-14T15:22:25.281Z,51.10
2018-09-14T15:24:52.948Z,49.35
2018-09-14T15:27:20.587Z,49.39
2018-09-14T15:29:48.525Z,49.81
2018-09-14T15:32:16.182Z,50.28
2018-09-14T15:34:43.933Z,50.11
2018-09-14T15:37:12.306Z,49.26
2018-09-14T15:39:40.122Z,46.25
2018-09-14T15:42:07.997Z,45.78
2018-09-14T15:44:35.958Z,43.79
2018-09-14T15:47:04.187Z,44.22
2018-09-14T15:49:32.087Z,45.28
2018-09-14T15:51:59.941Z,46.65
2018-09-14T15:54:28.066Z,47.04
2018-09-14T15:56:56.370Z,47.59
2018-09-14T15:59:24.341Z,46.50
2018-09-14T16:01:52.246Z,44.62
2018-09-14T16:04:20.327Z,43.18
2018-09-14T16:06:48.227Z,43.96
2018-09-14T16:09:16.110Z,44.70
2018-09-14T16:11:44.037Z,45.67
2018-09-14T16:14:11.849Z,46.79
2018-09-14T16:16:39.806Z,47.25
2018-09-14T16:19:07.571Z,49.13
2018-09-14T16:21:35.359Z,50.22
2018-09-14T16:24:03.480Z,50.73
2018-09-14T16:26:31.424Z,50.79
2018-09-14T16:28:59.234Z,51.41
2018-09-14T16:31:27.239Z,51.94
2018-09-14T16:33:55.137Z,52.58
2018-09-14T16:36:22.934Z,52.01
2018-09-14T16:38:50.826Z,53.29
2018-09-14T16:41:18.672Z,53.82
2018-09-14T16:43:46.561Z,54.26
2018-09-14T16:46:14.349Z,54.78
2018-09-14T16:48:42.827Z,54.83
2018-09-14T16:51:10.585Z,55.06
2018-09-14T16:53:38.308Z,55.35
2018-09-14T16:56:06.009Z,56.01
2018-09-14T16:58:34.364Z,56.72
2018-09-14T17:01:02.018Z,56.94
2018-09-14T17:03:29.693Z,57.54
2018-09-14T17:05:57.300Z,57.58
2018-09-14T17:08:24.986Z,57.64
2018-09-14T17:10:53.325Z,58.19
2018-09-14T17:13:20.935Z,58.52
2018-09-14T17:15:48.606Z,58.32
2018-09-14T17:18:16.192Z,58.35
2018-09-14T17:20:43.815Z,58.68
2018-09-14T17:23:11.423Z,58.72
2018-09-14T17:25:39.037Z,59.48
2018-09-14T17:28:06.672Z,59.33
2018-09-14T17:30:34.346Z,59.85
2018-09-14T17:33:01.985Z,59.97
2018-09-14T17:35:29.617Z,60.38
2018-09-14T17:37:57.299Z,61.35
2018-09-14T17:40:24.899Z,61.66
2018-09-14T17:42:52.517Z,61.77
2018-09-14T17:45:20.167Z,62.16
2018-09-14T17:47:47.826Z,62.52
2018-09-14T17:50:15.439Z,62.40
2018-09-14T17:52:43.165Z,62.87
2018-09-14T17:55:10.859Z,63.36
2018-09-14T17:57:38.459Z,63.39
2018-09-14T18:00:06.550Z,63.54
2018-09-14T18:02:34.167Z,63.87
2018-09-14T18:05:01.751Z,63.71
2018-09-14T18:07:29.395Z,64.12
2018-09-14T18:09:57.071Z,64.21
2018-09-14T18:12:24.714Z,64.85
2018-09-14T18:14:52.478Z,64.76
2018-09-14T18:17:20.186Z,64.92
2018-09-14T18:19:48.945Z,65.30
2018-09-14T18:22:16.838Z,65.69
2018-09-14T18:24:44.483Z,66.20
2018-09-14T18:27:12.340Z,66.15
2018-09-14T18:29:39.948Z,65.68
2018-09-14T18:32:07.639Z,66.15
2018-09-14T18:34:35.341Z,66.01
2018-09-14T18:37:03.055Z,66.25
2018-09-14T18:39:30.672Z,66.02
2018-09-14T18:41:58.310Z,66.24
2018-09-14T18:44:25.936Z,66.68
2018-09-14T18:46:53.661Z,66.72
2018-09-14T18:49:21.303Z,67.00
2018-09-14T18:51:49.505Z,66.85
2018-09-14T18:54:17.231Z,67.12
2018-09-14T18:56:44.802Z,67.06
2018-09-14T18:59:12.421Z,67.21
2018-09-14T19:01:40.176Z,67.22
2018-09-14T19:04:07.785Z,67.30
2018-09-14T19:06:35.502Z,67.63
2018-09-14T19:09:07.691Z,67.79
2018-09-14T19:11:35.551Z,67.81
2018-09-14T19:14:03.362Z,68.37
2018-09-14T19:16:31.172Z,68.43
2018-09-14T19:18:59.107Z,67.86
2018-09-14T19:21:27.866Z,67.91
2018-09-14T19:23:55.487Z,68.21
2018-09-14T19:26:23.147Z,68.50
2018-09-14T19:28:51.000Z,68.15
2018-09-14T19:31:18.753Z,68.05
2018-09-14T19:33:47.566Z,67.63
2018-09-14T19:36:15.344Z,68.12
2018-09-14T19:38:43.043Z,68.61
2018-09-14T19:41:10.702Z,68.64
2018-09-14T19:43:38.939Z,68.32
2018-09-14T19:46:07.074Z,68.46
2018-09-14T19:48:34.918Z,68.50
2018-09-14T19:51:02.584Z,68.60
2018-09-14T19:53:30.434Z,68.65
2018-09-14T19:55:58.387Z,69.30
2018-09-14T19:58:26.271Z,69.49
2018-09-14T20:00:54.084Z,69.08
2018-09-14T20:03:21.882Z,68.91
2018-09-14T20:05:49.561Z,68.62
2018-09-14T20:08:17.325Z,69.04
2018-09-14T20:10:45.144Z,69.38
2018-09-14T20:13:13.187Z,69.41
2018-09-14T20:15:41.008Z,69.42
2018-09-14T20:18:09.012Z,69.52
2018-09-14T20:20:36.928Z,69.70
2018-09-14T20:23:04.988Z,69.67
2018-09-14T20:25:32.981Z,69.99
2018-09-14T20:28:00.884Z,69.87
2018-09-14T20:30:28.942Z,70.05
2018-09-14T20:32:56.750Z,69.70
2018-09-14T20:35:24.656Z,69.02
2018-09-14T20:37:52.331Z,68.86
2018-09-14T20:40:20.279Z,69.70
2018-09-14T20:42:48.028Z,69.47
2018-09-14T20:45:15.926Z,69.80
2018-09-14T20:47:43.826Z,69.73
2018-09-14T20:50:11.618Z,69.04
2018-09-14T20:52:39.389Z,69.22
2018-09-14T20:55:07.366Z,69.30
2018-09-14T20:57:35.116Z,69.56
2018-09-14T21:00:03.107Z,69.73
2018-09-14T21:02:30.857Z,69.59
2018-09-14T21:04:58.594Z,69.92
2018-09-14T21:07:26.312Z,69.60
2018-09-14T21:09:54.391Z,69.73
2018-09-14T21:12:22.150Z,70.03
2018-09-14T21:14:49.885Z,69.87
2018-09-14T21:17:17.906Z,69.65
2018-09-14T21:19:46.011Z,69.66
2018-09-14T21:22:14.118Z,69.21
2018-09-14T21:24:41.889Z,69.15
2018-09-14T21:27:09.749Z,68.81
2018-09-14T21:29:37.494Z,68.54
2018-09-14T21:32:05.576Z,68.48
2018-09-14T21:34:33.482Z,68.40
2018-09-14T21:37:01.345Z,68.30
2018-09-14T21:39:29.260Z,68.43
2018-09-14T21:41:56.919Z,68.73
2018-09-14T21:44:24.821Z,68.38
2018-09-14T21:46:52.495Z,68.48
2018-09-14T21:49:20.158Z,68.72
2018-09-14T21:51:47.766Z,68.52
2018-09-14T21:54:15.380Z,68.93
2018-09-14T21:56:42.943Z,69.03
2018-09-14T21:59:10.629Z,68.99
2018-09-14T22:01:38.251Z,69.13
2018-09-14T22:04:05.918Z,68.99
2018-09-14T22:06:33.539Z,68.93
2018-09-14T22:09:01.155Z,69.11
2018-09-14T22:11:28.752Z,69.23
2018-09-14T22:13:56.385Z,69.31
2018-09-14T22:16:23.987Z,69.28
2018-09-14T22:18:51.622Z,68.78
2018-09-14T22:21:19.286Z,69.08
2018-09-14T22:23:46.910Z,68.52
2018-09-14T22:26:14.602Z,68.36
2018-09-14T22:28:42.244Z,68.23
2018-09-14T22:31:09.848Z,67.90
2018-09-14T22:33:37.487Z,67.99
2018-09-14T22:36:05.101Z,67.50
2018-09-14T22:38:32.713Z,67.74
2018-09-14T22:41:00.358Z,67.09
2018-09-14T22:43:28.120Z,67.23
2018-09-14T22:45:55.735Z,66.94
2018-09-14T22:48:39.998Z,67.14
2018-09-14T22:51:07.967Z,67.22
2018-09-14T22:53:35.641Z,67.49
2018-09-14T22:56:03.698Z,67.39
2018-09-14T22:58:31.332Z,66.47
2018-09-14T23:01:04.503Z,66.56
2018-09-14T23:03:32.734Z,66.55
2018-09-14T23:06:00.415Z,67.30
2018-09-14T23:08:28.102Z,67.49
2018-09-14T23:10:56.786Z,67.72
2018-09-14T23:13:24.429Z,67.75
2018-09-14T23:15:57.787Z,67.73
2018-09-14T23:18:25.445Z,67.90
2018-09-14T23:20:53.120Z,67.80
2018-09-14T23:23:20.844Z,67.60
2018-09-14T23:25:49.105Z,68.01
2018-09-14T23:28:16.728Z,67.97
2018-09-14T23:30:44.407Z,68.15
2018-09-14T23:33:12.018Z,68.37
2018-09-14T23:35:40.395Z,68.04
2018-09-14T23:38:08.059Z,68.52
2018-09-14T23:40:35.761Z,68.46
2018-09-14T23:43:03.437Z,68.70
2018-09-14T23:45:31.043Z,68.97
2018-09-14T23:47:58.694Z,69.26
2018-09-14T23:50:26.395Z,69.70
2018-09-14T23:52:54.038Z,69.88
2018-09-14T23:55:21.771Z,70.05
2018-09-14T23:57:49.370Z,69.94
